createdAt,value
2023-03-21T00:00:59.838Z,8.11
2023-03-21T00:06:11.254Z,8.01
2023-03-21T00:11:13.212Z,7.93
2023-03-21T00:16:20.404Z,7.89
2023-03-21T00:21:46.497Z,7.81
2023-03-21T00:26:53.910Z,7.69
2023-03-21T00:31:55.755Z,7.62
2023-03-21T00:36:59.490Z,7.61
2023-03-21T00:42:01.393Z,7.67
2023-03-21T00:47:07.816Z,7.75
2023-03-21T00:52:27.365Z,7.74
2023-03-21T00:57:39.288Z,7.74
2023-03-21T01:03:02.692Z,7.74
2023-03-21T01:08:20.681Z,7.75
2023-03-21T01:13:25.811Z,7.71
2023-03-21T01:18:30.325Z,7.67
2023-03-21T01:23:31.930Z,7.55
2023-03-21T01:28:37.302Z,7.34
2023-03-21T01:33:39.005Z,7.14
2023-03-21T01:38:41.767Z,6.99
2023-03-21T01:43:43.934Z,6.90
2023-03-21T01:48:45.726Z,6.85
2023-03-21T01:53:48.162Z,6.87
2023-03-21T01:58:55.174Z,6.95
2023-03-21T02:04:22.301Z,7.01
2023-03-21T02:09:32.436Z,7.02
2023-03-21T02:14:37.157Z,7.00
2023-03-21T02:20:15.041Z,6.97
2023-03-21T02:25:22.123Z,6.92
2023-03-21T02:30:35.523Z,6.87
2023-03-21T02:36:13.661Z,6.83
2023-03-21T02:41:29.895Z,6.82
2023-03-21T02:47:02.980Z,6.84
2023-03-21T02:52:16.968Z,6.83
2023-03-21T02:57:31.359Z,6.85
2023-03-21T03:02:41.554Z,6.87
2023-03-21T03:08:14.047Z,6.86
2023-03-21T03:13:35.717Z,6.74
2023-03-21T03:18:42.002Z,6.66
2023-03-21T03:23:50.103Z,6.62
2023-03-21T03:28:55.308Z,6.61
2023-03-21T03:34:02.262Z,6.57
2023-03-21T03:39:11.664Z,6.43
2023-03-21T03:44:17.526Z,6.28
2023-03-21T03:49:31.793Z,6.19
2023-03-21T03:54:40.474Z,6.06
2023-03-21T03:59:45.267Z,5.93
2023-03-21T04:05:21.328Z,5.82
2023-03-21T04:10:23.240Z,5.71
2023-03-21T04:15:25.232Z,5.64
2023-03-21T04:20:37.264Z,5.65
2023-03-21T04:25:47.512Z,5.61
2023-03-21T04:31:01.437Z,5.54
2023-03-21T04:36:27.613Z,5.52
2023-03-21T04:41:32.873Z,5.54
2023-03-21T04:46:35.383Z,5.55
2023-03-21T04:51:37.330Z,5.49
2023-03-21T04:56:43.097Z,5.40
2023-03-21T05:01:45.374Z,5.31
2023-03-21T05:06:46.892Z,5.23
2023-03-21T05:11:51.710Z,5.09
2023-03-21T05:16:56.081Z,5.00
2023-03-21T05:21:57.875Z,4.82
2023-03-21T05:27:04.783Z,4.52
2023-03-21T05:32:14.039Z,4.37
2023-03-21T05:37:15.639Z,4.30
2023-03-21T05:42:22.341Z,4.31
2023-03-21T05:47:24.680Z,4.31
2023-03-21T05:52:29.609Z,4.37
2023-03-21T05:57:35.038Z,4.42
2023-03-21T06:02:42.017Z,4.54
2023-03-21T06:07:58.643Z,4.65
2023-03-21T06:13:00.953Z,4.87
2023-03-21T06:18:07.234Z,5.23
2023-03-21T06:23:11.158Z,5.58
2023-03-21T06:28:13.164Z,5.97
2023-03-21T06:33:16.510Z,6.28
2023-03-21T06:38:19.337Z,6.54
2023-03-21T06:43:22.215Z,6.66
2023-03-21T06:48:26.011Z,6.80
2023-03-21T06:53:27.687Z,7.04
2023-03-21T06:58:52.041Z,7.39
2023-03-21T07:04:11.376Z,7.60
2023-03-21T07:09:13.886Z,7.75
2023-03-21T07:14:15.631Z,8.04
2023-03-21T07:19:17.342Z,8.61
2023-03-21T07:24:18.892Z,9.10
2023-03-21T07:29:22.671Z,9.48
2023-03-21T07:34:24.243Z,9.75
2023-03-21T07:39:27.236Z,9.87
2023-03-21T07:44:30.380Z,10.02
2023-03-21T07:49:37.896Z,10.35
2023-03-21T07:54:39.425Z,10.49
2023-03-21T07:59:41.415Z,10.80
2023-03-21T08:04:43.484Z,11.28
2023-03-21T08:09:55.980Z,11.79
2023-03-21T08:14:59.977Z,12.17
2023-03-21T08:20:02.534Z,12.60
2023-03-21T08:25:08.774Z,12.84
2023-03-21T08:30:13.386Z,12.92
2023-03-21T08:35:17.364Z,13.03
2023-03-21T08:40:20.705Z,12.95
2023-03-21T08:45:22.880Z,13.27
2023-03-21T08:50:26.836Z,13.48
2023-03-21T08:55:28.404Z,13.48
2023-03-21T09:00:30.100Z,13.67
2023-03-21T09:05:32.010Z,13.96
2023-03-21T09:10:33.628Z,14.15
2023-03-21T09:15:35.447Z,14.30
2023-03-21T09:20:38.341Z,14.25
2023-03-21T09:25:42.449Z,14.42
2023-03-21T09:30:44.675Z,14.70
2023-03-21T09:35:46.362Z,14.84
2023-03-21T09:41:07.903Z,14.89
2023-03-21T09:46:17.007Z,14.95
2023-03-21T09:51:22.183Z,14.90
2023-03-21T09:56:25.959Z,14.97
2023-03-21T10:01:33.012Z,14.99
2023-03-21T10:06:40.357Z,15.03
2023-03-21T10:11:50.479Z,15.08
2023-03-21T10:16:57.778Z,14.98
2023-03-21T10:22:01.614Z,14.84
2023-03-21T10:27:05.004Z,14.87
2023-03-21T10:32:11.881Z,15.03
2023-03-21T10:37:14.911Z,15.10
2023-03-21T10:42:21.888Z,15.25
2023-03-21T10:47:30.580Z,15.41
2023-03-21T10:52:33.123Z,15.76
2023-03-21T10:57:38.074Z,15.90
2023-03-21T11:02:40.551Z,15.95
2023-03-21T11:07:42.219Z,16.07
2023-03-21T11:12:48.265Z,16.01
2023-03-21T11:17:49.787Z,16.10
2023-03-21T11:22:55.348Z,16.22
2023-03-21T11:27:57.174Z,16.50
2023-03-21T11:33:03.458Z,16.65
2023-03-21T11:38:07.500Z,16.82
2023-03-21T11:43:29.161Z,16.82
2023-03-21T11:48:38.164Z,16.83
2023-03-21T11:53:51.586Z,17.03
2023-03-21T11:58:56.294Z,17.27
2023-03-21T12:04:04.411Z,17.36
2023-03-21T12:09:34.538Z,17.57
2023-03-21T12:14:53.310Z,17.72
2023-03-21T12:20:37.671Z,17.85
2023-03-21T12:26:27.898Z,18.30
2023-03-21T12:31:42.329Z,18.57
2023-03-21T12:36:59.641Z,18.81
2023-03-21T12:42:10.612Z,18.64
2023-03-21T12:47:21.234Z,18.58
2023-03-21T12:52:30.640Z,18.70
2023-03-21T12:57:57.198Z,18.69
2023-03-21T13:03:09.109Z,18.45
2023-03-21T13:08:18.265Z,18.48
2023-03-21T13:13:32.039Z,18.80
2023-03-21T13:18:36.717Z,18.90
2023-03-21T13:23:39.493Z,19.15
2023-03-21T13:28:43.901Z,19.17
2023-03-21T13:33:48.682Z,19.04
2023-03-21T13:38:52.369Z,18.97
2023-03-21T13:44:03.002Z,18.87
2023-03-21T13:49:07.525Z,18.59
2023-03-21T13:54:14.049Z,18.21
2023-03-21T13:59:37.422Z,18.47
2023-03-21T14:05:00.312Z,18.66
2023-03-21T14:10:17.157Z,18.43
2023-03-21T14:15:18.684Z,18.29
2023-03-21T14:20:24.928Z,17.87
2023-03-21T14:25:40.845Z,17.48
2023-03-21T14:30:50.121Z,17.59
2023-03-21T14:35:55.946Z,17.45
2023-03-21T14:40:58.893Z,17.39
2023-03-21T14:46:01.227Z,17.22
2023-03-21T14:51:10.104Z,17.16
2023-03-21T14:56:14.703Z,17.02
2023-03-21T15:01:32.585Z,16.77
2023-03-21T15:06:35.735Z,16.64
2023-03-21T15:11:38.603Z,16.69
2023-03-21T15:16:40.501Z,16.59
2023-03-21T15:21:48.445Z,16.52
2023-03-21T15:26:50.822Z,16.44
2023-03-21T15:31:52.746Z,16.37
2023-03-21T15:37:06.647Z,16.36
2023-03-21T15:42:34.542Z,16.24
2023-03-21T15:47:49.156Z,16.19
2023-03-21T15:52:52.175Z,16.09
2023-03-21T15:58:00.917Z,16.00
2023-03-21T16:03:09.884Z,15.98
2023-03-21T16:08:26.380Z,15.92
2023-03-21T16:13:27.933Z,15.79
2023-03-21T16:18:31.919Z,15.66
2023-03-21T16:23:33.456Z,15.46
2023-03-21T16:28:35.057Z,15.23
2023-03-21T16:33:36.896Z,15.12
2023-03-21T16:38:38.436Z,14.91
2023-03-21T16:43:43.278Z,14.78
2023-03-21T16:48:47.416Z,14.68
2023-03-21T16:53:49.768Z,14.56
2023-03-21T16:58:53.638Z,14.44
2023-03-21T17:03:57.715Z,14.32
2023-03-21T17:08:59.461Z,14.22
2023-03-21T17:14:01.043Z,14.08
2023-03-21T17:19:04.501Z,13.99
2023-03-21T17:24:06.457Z,13.94
2023-03-21T17:29:13.583Z,13.74
2023-03-21T17:34:15.815Z,13.58
2023-03-21T17:39:23.929Z,13.41
2023-03-21T17:44:25.698Z,13.26
2023-03-21T17:49:27.828Z,13.16
2023-03-21T17:54:29.479Z,13.11
2023-03-21T17:59:31.039Z,12.99
2023-03-21T18:04:32.587Z,12.87
2023-03-21T18:09:34.120Z,12.80
2023-03-21T18:14:40.363Z,12.73
2023-03-21T18:19:43.250Z,12.61
2023-03-21T18:24:46.636Z,12.47
2023-03-21T18:35:16.214Z,12.42
2023-03-21T18:40:22.092Z,12.30
2023-03-21T18:45:25.154Z,12.08
2023-03-21T18:50:27.431Z,12.05
2023-03-21T18:55:44.803Z,12.00
2023-03-21T19:00:47.500Z,11.92
2023-03-21T19:05:49.189Z,11.80
2023-03-21T19:10:51.205Z,11.69
2023-03-21T19:15:54.065Z,11.49
2023-03-21T19:20:58.539Z,11.27
2023-03-21T19:26:00.318Z,11.11
2023-03-21T19:31:06.900Z,11.05
2023-03-21T19:36:17.846Z,10.97
2023-03-21T19:41:22.625Z,10.89
2023-03-21T19:46:25.434Z,10.81
2023-03-21T19:51:29.717Z,10.70
2023-03-21T19:56:32.169Z,10.57
2023-03-21T20:01:33.748Z,10.39
2023-03-21T20:06:35.554Z,10.20
2023-03-21T20:11:37.100Z,10.03
2023-03-21T20:16:38.731Z,9.98
2023-03-21T20:21:48.545Z,9.89
2023-03-21T20:26:55.596Z,9.78
2023-03-21T20:31:57.108Z,9.67
2023-03-21T20:36:58.975Z,9.60
2023-03-21T20:42:00.528Z,9.43
2023-03-21T20:47:04.817Z,9.17
2023-03-21T20:57:28.647Z,8.59
2023-03-21T21:02:30.636Z,8.38
2023-03-21T21:07:32.304Z,8.24
2023-03-21T21:12:33.985Z,8.12
2023-03-21T21:23:00.275Z,7.74
2023-03-21T21:28:02.990Z,7.58
2023-03-21T21:33:05.436Z,7.39
2023-03-21T21:38:07.042Z,7.24
2023-03-21T21:43:08.752Z,7.08
2023-03-21T21:48:11.589Z,6.94
2023-03-21T21:53:13.690Z,6.81
2023-03-21T21:58:18.856Z,6.74
2023-03-21T22:03:22.237Z,6.64
2023-03-21T22:08:23.901Z,6.49
2023-03-21T22:13:25.392Z,6.36
2023-03-21T22:18:27.013Z,6.26
2023-03-21T22:23:28.529Z,6.15
2023-03-21T22:28:31.485Z,6.07
2023-03-21T22:33:33.487Z,6.03
2023-03-21T22:38:36.987Z,6.00
2023-03-21T22:43:38.559Z,5.97
2023-03-21T22:48:40.311Z,5.88
2023-03-21T22:53:41.824Z,5.80
2023-03-21T22:58:43.349Z,5.73
2023-03-21T23:03:44.883Z,5.69
2023-03-21T23:08:46.493Z,5.61
2023-03-21T23:13:51.586Z,5.49
2023-03-21T23:19:00.325Z,5.45
2023-03-21T23:24:02.080Z,5.36
2023-03-21T23:29:05.161Z,5.30
2023-03-21T23:34:06.755Z,5.25
2023-03-21T23:39:08.712Z,5.23
2023-03-21T23:44:10.253Z,5.27
2023-03-21T23:49:11.829Z,5.32
2023-03-21T23:54:13.397Z,5.35
2023-03-21T23:59:15.060Z,5.36
